Time;durP1;ratioP1;P1;durP2;ratioP2;P2;SDS_P1;SDS_P2;PMS_P1;PMS_P2;Temp;Humidity;BMP_temperature;BMP_pressure;BME280_temperature;BME280_humidity;BME280_pressure;Samples;Min_cycle;Max_cycle;Signal;HPM_P1;HPM_P2
2021/09/25 00:00:13;;;;;;;;;;;24.30;43.00;;;;;;491374;242;981;-69
2021/09/25 00:02:14;;;;;;;;;;;24.20;43.00;;;;;;491288;242;1141;-69
2021/09/25 00:04:16;;;;;;;;;;;24.10;43.10;;;;;;491326;242;1114;-68
2021/09/25 00:06:17;;;;;;;;;;;24.10;43.30;;;;;;491444;242;1111;-68
2021/09/25 00:08:18;;;;;;;;;;;24.00;43.30;;;;;;491317;242;1228;-69
2021/09/25 00:10:20;;;;;;;;;;;24.10;43.20;;;;;;491343;242;2180;-69
2021/09/25 00:12:21;;;;;;;;;;;24.20;43.10;;;;;;491251;242;1243;-69
2021/09/25 00:14:22;;;;;;;;;;;24.10;43.00;;;;;;491288;242;1085;-69
2021/09/25 00:16:26;;;;;;;;;;;24.20;43.00;;;;;;491329;242;1038;-69
2021/09/25 00:18:26;;;;;;;;;;;24.20;43.00;;;;;;491398;242;1344;-68
2021/09/25 00:20:27;;;;;;;;;;;24.20;43.00;;;;;;491352;242;1049;-68
2021/09/25 00:22:29;;;;;;;;;;;24.20;43.00;;;;;;491300;242;1273;-68
2021/09/25 00:24:30;;;;;;;;;;;24.10;43.00;;;;;;491284;242;1073;-68
2021/09/25 00:26:31;;;;;;;;;;;24.10;43.00;;;;;;491234;242;1158;-68
2021/09/25 00:28:32;;;;;;;;;;;24.10;42.90;;;;;;491405;242;1023;-69
2021/09/25 00:30:34;;;;;;;;;;;24.10;43.00;;;;;;491345;242;2185;-69
2021/09/25 00:32:35;;;;;;;;;;;24.00;43.00;;;;;;491437;242;1060;-69
2021/09/25 00:34:36;;;;;;;;;;;24.10;43.10;;;;;;491355;242;980;-69
2021/09/25 00:36:38;;;;;;;;;;;24.10;43.00;;;;;;491279;242;1071;-69
2021/09/25 00:38:39;;;;;;;;;;;24.10;42.90;;;;;;491258;242;1045;-69
2021/09/25 00:40:40;;;;;;;;;;;24.10;43.00;;;;;;491359;242;1034;-69
2021/09/25 00:42:42;;;;;;;;;;;24.10;43.00;;;;;;491333;242;1166;-68
2021/09/25 00:44:43;;;;;;;;;;;24.10;42.80;;;;;;491428;242;1044;-68
2021/09/25 00:46:44;;;;;;;;;;;24.10;42.80;;;;;;491361;242;1506;-68
2021/09/25 00:48:46;;;;;;;;;;;24.10;42.80;;;;;;491358;242;1044;-69
2021/09/25 00:50:47;;;;;;;;;;;24.20;42.80;;;;;;491379;242;2133;-69
2021/09/25 00:52:48;;;;;;;;;;;24.20;42.70;;;;;;491367;242;1194;-68
2021/09/25 00:54:50;;;;;;;;;;;24.10;42.70;;;;;;491397;242;973;-68
2021/09/25 00:56:51;;;;;;;;;;;24.20;42.70;;;;;;491333;242;1324;-68
2021/09/25 00:58:52;;;;;;;;;;;24.20;42.60;;;;;;491265;242;1019;-69
2021/09/25 01:00:54;;;;;;;;;;;24.10;42.60;;;;;;491317;242;1197;-69
2021/09/25 01:02:55;;;;;;;;;;;24.00;42.90;;;;;;491310;242;1057;-68
2021/09/25 01:04:56;;;;;;;;;;;24.00;42.90;;;;;;491489;242;975;-69
2021/09/25 01:06:58;;;;;;;;;;;24.10;42.70;;;;;;491248;242;1231;-69
2021/09/25 01:08:59;;;;;;;;;;;24.20;42.60;;;;;;491474;242;2093;-69
2021/09/25 01:11:00;;;;;;;;;;;24.10;42.60;;;;;;491325;242;1069;-69
2021/09/25 01:13:02;;;;;;;;;;;24.10;42.60;;;;;;491400;242;1149;-69
2021/09/25 01:15:03;;;;;;;;;;;24.10;42.50;;;;;;491358;242;965;-69
2021/09/25 01:17:04;;;;;;;;;;;24.10;42.60;;;;;;491359;242;1161;-68
2021/09/25 01:19:05;;;;;;;;;;;24.10;42.70;;;;;;491389;242;1068;-69
2021/09/25 01:21:07;;;;;;;;;;;24.00;42.70;;;;;;491291;242;1040;-68
2021/09/25 01:23:08;;;;;;;;;;;24.10;42.70;;;;;;491344;242;1120;-69
2021/09/25 01:25:09;;;;;;;;;;;24.00;42.60;;;;;;491362;242;1069;-68
2021/09/25 01:27:11;;;;;;;;;;;24.10;42.60;;;;;;491289;239;1315;-68
2021/09/25 01:29:12;;;;;;;;;;;23.90;42.80;;;;;;491349;242;2125;-68
2021/09/25 01:31:13;;;;;;;;;;;24.00;42.70;;;;;;491208;242;1153;-68
2021/09/25 01:33:15;;;;;;;;;;;24.10;42.30;;;;;;491417;242;979;-68
2021/09/25 01:35:17;;;;;;;;;;;24.10;42.40;;;;;;491376;242;1033;-68
2021/09/25 01:37:18;;;;;;;;;;;24.10;42.30;;;;;;491339;242;954;-69
2021/09/25 01:39:19;;;;;;;;;;;24.20;42.10;;;;;;491332;242;1054;-68
2021/09/25 01:41:21;;;;;;;;;;;24.20;42.10;;;;;;491345;242;1134;-68
2021/09/25 01:43:22;;;;;;;;;;;24.20;42.00;;;;;;491340;242;1113;-69
2021/09/25 01:45:23;;;;;;;;;;;24.20;42.10;;;;;;491305;242;1212;-69
2021/09/25 01:47:25;;;;;;;;;;;24.10;42.10;;;;;;491253;242;1048;-69
2021/09/25 01:49:26;;;;;;;;;;;24.20;42.00;;;;;;491373;242;2125;-69
2021/09/25 01:51:27;;;;;;;;;;;24.10;42.10;;;;;;491368;242;1216;-68
2021/09/25 01:53:29;;;;;;;;;;;24.20;42.10;;;;;;491282;242;998;-68
2021/09/25 01:55:30;;;;;;;;;;;24.20;41.90;;;;;;491283;242;1136;-68
2021/09/25 01:57:31;;;;;;;;;;;24.20;41.90;;;;;;491287;242;1195;-69
2021/09/25 01:59:33;;;;;;;;;;;24.10;41.90;;;;;;491535;242;1017;-68
2021/09/25 02:01:34;;;;;;;;;;;24.20;42.00;;;;;;491289;242;1228;-69
2021/09/25 02:03:36;;;;;;;;;;;24.10;42.00;;;;;;491338;242;1060;-68
2021/09/25 02:05:37;;;;;;;;;;;24.00;42.10;;;;;;491436;242;1150;-68
2021/09/25 02:07:38;;;;;;;;;;;24.00;42.20;;;;;;491398;242;1030;-69
2021/09/25 02:09:39;;;;;;;;;;;24.10;42.00;;;;;;491448;242;2180;-69
2021/09/25 02:11:41;;;;;;;;;;;24.10;42.00;;;;;;491362;242;957;-69
2021/09/25 02:13:42;;;;;;;;;;;24.00;42.20;;;;;;491368;242;1656;-68
2021/09/25 02:15:44;;;;;;;;;;;24.00;42.10;;;;;;491342;242;1039;-68
2021/09/25 02:17:45;;;;;;;;;;;24.10;42.00;;;;;;491364;242;1093;-68
2021/09/25 02:19:46;;;;;;;;;;;24.10;41.90;;;;;;491381;242;1107;-68
2021/09/25 02:21:48;;;;;;;;;;;24.10;41.90;;;;;;491450;242;1209;-69
2021/09/25 02:23:49;;;;;;;;;;;24.00;42.10;;;;;;491364;242;1014;-69
2021/09/25 02:25:50;;;;;;;;;;;23.90;42.10;;;;;;491464;242;1041;-69
2021/09/25 02:27:52;;;;;;;;;;;23.90;42.20;;;;;;491398;242;1133;-69
2021/09/25 02:29:53;;;;;;;;;;;23.90;42.20;;;;;;491471;242;2172;-69
2021/09/25 02:31:54;;;;;;;;;;;23.90;42.30;;;;;;491312;242;1093;-68
2021/09/25 02:33:56;;;;;;;;;;;24.00;42.20;;;;;;491402;242;1070;-68
2021/09/25 02:35:57;;;;;;;;;;;23.90;42.30;;;;;;491503;242;1151;-68
2021/09/25 02:37:59;;;;;;;;;;;24.00;42.10;;;;;;491346;242;1163;-68
2021/09/25 02:40:00;;;;;;;;;;;24.00;42.00;;;;;;491318;242;1043;-69
2021/09/25 02:42:01;;;;;;;;;;;24.10;41.90;;;;;;491246;242;1059;-68
2021/09/25 02:44:03;;;;;;;;;;;24.00;41.80;;;;;;491396;242;1142;-69
2021/09/25 02:46:04;;;;;;;;;;;24.00;41.90;;;;;;491341;242;1216;-69
2021/09/25 02:48:05;;;;;;;;;;;24.00;41.90;;;;;;491407;242;1109;-69
2021/09/25 02:50:07;;;;;;;;;;;24.00;41.80;;;;;;491415;242;2208;-68
2021/09/25 02:52:08;;;;;;;;;;;24.10;41.80;;;;;;491300;242;1085;-69
2021/09/25 02:54:09;;;;;;;;;;;24.10;41.60;;;;;;491438;242;1038;-68
2021/09/25 02:56:11;;;;;;;;;;;24.20;41.60;;;;;;491325;242;1115;-69
2021/09/25 02:58:12;;;;;;;;;;;24.10;41.50;;;;;;491443;242;1020;-69
2021/09/25 03:00:14;;;;;;;;;;;24.20;41.50;;;;;;491383;242;1040;-69
2021/09/25 03:02:15;;;;;;;;;;;24.20;41.60;;;;;;491318;242;1227;-69
2021/09/25 03:04:16;;;;;;;;;;;24.20;41.50;;;;;;491393;242;1062;-69
2021/09/25 03:06:17;;;;;;;;;;;24.30;41.40;;;;;;491332;242;1024;-69
2021/09/25 03:08:19;;;;;;;;;;;24.20;41.40;;;;;;491291;242;1148;-68
2021/09/25 03:10:21;;;;;;;;;;;24.20;41.50;;;;;;491384;242;2184;-68
2021/09/25 03:12:22;;;;;;;;;;;24.30;41.40;;;;;;491398;242;1236;-69
2021/09/25 03:14:24;;;;;;;;;;;24.30;41.30;;;;;;491372;242;1154;-69
2021/09/25 03:16:24;;;;;;;;;;;24.30;41.30;;;;;;491284;242;1232;-69
2021/09/25 03:18:26;;;;;;;;;;;24.20;41.50;;;;;;491412;242;1097;-69
2021/09/25 03:20:27;;;;;;;;;;;24.30;41.40;;;;;;491455;242;1093;-69
2021/09/25 03:22:28;;;;;;;;;;;24.30;41.30;;;;;;491298;242;1222;-68
2021/09/25 03:24:30;;;;;;;;;;;24.30;41.30;;;;;;491339;242;1052;-68
2021/09/25 03:26:31;;;;;;;;;;;24.10;41.50;;;;;;491256;242;1293;-68
2021/09/25 03:28:32;;;;;;;;;;;24.30;41.50;;;;;;491392;242;1067;-68
2021/09/25 03:30:34;;;;;;;;;;;24.20;41.50;;;;;;491425;242;2140;-69
2021/09/25 03:32:35;;;;;;;;;;;24.20;41.40;;;;;;491218;242;1203;-69
2021/09/25 03:34:36;;;;;;;;;;;24.20;41.40;;;;;;491360;242;1041;-69
2021/09/25 03:36:38;;;;;;;;;;;24.30;41.20;;;;;;491251;242;1220;-68
2021/09/25 03:38:39;;;;;;;;;;;24.30;41.20;;;;;;491285;242;993;-68
2021/09/25 03:40:40;;;;;;;;;;;24.20;41.40;;;;;;491329;242;1145;-68
2021/09/25 03:42:42;;;;;;;;;;;24.10;41.50;;;;;;491315;242;1100;-68
2021/09/25 03:44:43;;;;;;;;;;;24.30;41.20;;;;;;491433;242;1141;-68
2021/09/25 03:46:45;;;;;;;;;;;24.30;41.20;;;;;;491307;242;1041;-68
2021/09/25 03:48:46;;;;;;;;;;;24.30;41.30;;;;;;491336;242;1162;-68
2021/09/25 03:50:47;;;;;;;;;;;24.30;41.30;;;;;;491321;242;2180;-68
2021/09/25 03:52:48;;;;;;;;;;;24.40;41.10;;;;;;491316;242;1098;-69
2021/09/25 03:54:50;;;;;;;;;;;24.30;41.10;;;;;;491329;242;993;-68
2021/09/25 03:56:51;;;;;;;;;;;24.30;41.10;;;;;;491331;242;1065;-69
2021/09/25 03:58:53;;;;;;;;;;;24.20;41.20;;;;;;491386;242;956;-69
2021/09/25 04:00:54;;;;;;;;;;;24.30;41.10;;;;;;491317;242;1173;-68
2021/09/25 04:02:55;;;;;;;;;;;24.20;41.20;;;;;;491317;242;1161;-69
2021/09/25 04:04:56;;;;;;;;;;;24.20;41.20;;;;;;491491;242;1043;-69
2021/09/25 04:06:58;;;;;;;;;;;24.20;41.10;;;;;;491355;242;1126;-68
2021/09/25 04:09:00;;;;;;;;;;;24.10;41.20;;;;;;491381;242;993;-69
2021/09/25 04:11:01;;;;;;;;;;;24.20;41.10;;;;;;491303;242;2243;-69
2021/09/25 04:13:02;;;;;;;;;;;24.30;41.10;;;;;;491347;242;1087;-68
2021/09/25 04:15:04;;;;;;;;;;;24.30;41.00;;;;;;491303;242;1173;-68
2021/09/25 04:17:05;;;;;;;;;;;24.30;40.90;;;;;;491301;242;1072;-68
2021/09/25 04:19:06;;;;;;;;;;;24.40;40.90;;;;;;491356;242;1056;-69
2021/09/25 04:21:08;;;;;;;;;;;24.20;41.00;;;;;;491340;242;1209;-68
2021/09/25 04:23:09;;;;;;;;;;;24.30;41.10;;;;;;491387;242;1067;-69
2021/09/25 04:25:10;;;;;;;;;;;24.30;41.00;;;;;;491359;242;1075;-68
2021/09/25 04:27:12;;;;;;;;;;;24.30;40.90;;;;;;491306;242;1091;-68
2021/09/25 04:29:13;;;;;;;;;;;24.10;41.10;;;;;;491316;242;1046;-68
2021/09/25 04:31:14;;;;;;;;;;;24.20;41.00;;;;;;491313;242;2208;-68
2021/09/25 04:33:16;;;;;;;;;;;24.10;41.10;;;;;;491284;242;1145;-68
2021/09/25 04:35:18;;;;;;;;;;;24.10;41.00;;;;;;491485;242;953;-68
2021/09/25 04:37:18;;;;;;;;;;;24.10;41.10;;;;;;491292;243;1515;-69
2021/09/25 04:39:19;;;;;;;;;;;24.00;41.20;;;;;;491339;242;1063;-68
2021/09/25 04:41:21;;;;;;;;;;;24.00;41.30;;;;;;491367;242;1036;-69
2021/09/25 04:43:22;;;;;;;;;;;24.00;41.10;;;;;;491422;242;1112;-68
2021/09/25 04:45:23;;;;;;;;;;;24.00;41.20;;;;;;491397;242;1119;-68
2021/09/25 04:47:25;;;;;;;;;;;24.00;41.20;;;;;;491429;242;1192;-69
2021/09/25 04:49:26;;;;;;;;;;;23.90;41.30;;;;;;491380;242;1040;-68
2021/09/25 04:51:27;;;;;;;;;;;23.90;41.30;;;;;;491373;242;2173;-68
2021/09/25 04:53:30;;;;;;;;;;;24.00;41.10;;;;;;491309;242;1095;-69
2021/09/25 04:55:30;;;;;;;;;;;24.00;41.00;;;;;;491332;242;1360;-68
2021/09/25 04:57:32;;;;;;;;;;;24.00;41.00;;;;;;491298;242;1210;-68
2021/09/25 04:59:33;;;;;;;;;;;23.90;41.00;;;;;;491406;242;1027;-68
2021/09/25 05:01:35;;;;;;;;;;;24.00;40.90;;;;;;491320;242;1197;-69
2021/09/25 05:03:36;;;;;;;;;;;24.00;40.90;;;;;;491321;242;1486;-68
2021/09/25 05:05:37;;;;;;;;;;;23.90;41.00;;;;;;491349;242;1178;-68
2021/09/25 05:07:38;;;;;;;;;;;24.00;40.90;;;;;;491357;242;1125;-68
2021/09/25 05:09:40;;;;;;;;;;;24.00;40.80;;;;;;491375;242;983;-69
2021/09/25 05:11:41;;;;;;;;;;;24.10;40.80;;;;;;491339;242;2117;-68
2021/09/25 05:13:42;;;;;;;;;;;24.00;40.80;;;;;;491349;242;1013;-68
2021/09/25 05:15:44;;;;;;;;;;;24.00;40.80;;;;;;491371;242;1185;-68
2021/09/25 05:17:45;;;;;;;;;;;24.00;40.80;;;;;;491315;242;1126;-68
2021/09/25 05:19:48;;;;;;;;;;;24.00;40.70;;;;;;491350;242;1036;-68
2021/09/25 05:21:48;;;;;;;;;;;24.10;40.60;;;;;;491230;242;1365;-68
2021/09/25 05:23:49;;;;;;;;;;;24.00;40.60;;;;;;491415;242;1055;-68
2021/09/25 05:25:51;;;;;;;;;;;24.00;40.60;;;;;;491361;242;1214;-68
2021/09/25 05:27:52;;;;;;;;;;;24.00;40.70;;;;;;491321;242;1102;-68
2021/09/25 05:29:53;;;;;;;;;;;24.00;40.70;;;;;;491413;242;1048;-69
2021/09/25 05:31:58;;;;;;;;;;;24.10;40.60;;;;;;491417;242;2180;-69
2021/09/25 05:33:56;;;;;;;;;;;24.00;40.60;;;;;;491106;243;1443;-69
2021/09/25 05:35:57;;;;;;;;;;;24.00;40.70;;;;;;491318;242;1152;-68
2021/09/25 05:37:59;;;;;;;;;;;23.90;40.80;;;;;;491307;242;968;-69
2021/09/25 05:40:00;;;;;;;;;;;23.80;40.80;;;;;;491379;242;1086;-69
2021/09/25 05:42:01;;;;;;;;;;;24.00;40.80;;;;;;491342;242;1156;-69
2021/09/25 05:44:03;;;;;;;;;;;24.00;40.70;;;;;;491423;242;1022;-69
2021/09/25 05:46:04;;;;;;;;;;;23.90;40.70;;;;;;491312;242;1192;-69
2021/09/25 05:48:05;;;;;;;;;;;24.00;40.70;;;;;;491549;242;1154;-68
2021/09/25 05:50:07;;;;;;;;;;;24.00;40.50;;;;;;491361;242;1040;-68
2021/09/25 05:52:09;;;;;;;;;;;24.00;40.40;;;;;;491261;242;2129;-69
2021/09/25 05:54:10;;;;;;;;;;;24.00;40.50;;;;;;491364;242;1067;-68
2021/09/25 05:56:11;;;;;;;;;;;24.00;40.60;;;;;;491298;242;1201;-68
2021/09/25 05:58:12;;;;;;;;;;;24.00;40.60;;;;;;491307;242;1048;-68
2021/09/25 06:00:14;;;;;;;;;;;24.10;40.50;;;;;;491332;242;1049;-68
2021/09/25 06:02:15;;;;;;;;;;;24.30;40.20;;;;;;491177;242;1156;-69
2021/09/25 06:04:16;;;;;;;;;;;24.30;40.10;;;;;;491305;242;1082;-69
2021/09/25 06:06:18;;;;;;;;;;;24.20;40.40;;;;;;491326;242;1064;-68
2021/09/25 06:08:19;;;;;;;;;;;24.00;40.40;;;;;;491358;242;1005;-69
2021/09/25 06:10:20;;;;;;;;;;;23.80;41.00;;;;;;491408;242;1025;-69
2021/09/25 06:12:22;;;;;;;;;;;23.70;41.20;;;;;;491258;242;2192;-69
2021/09/25 06:14:23;;;;;;;;;;;23.60;41.50;;;;;;491356;242;1054;-68
2021/09/25 06:16:24;;;;;;;;;;;23.60;41.70;;;;;;491285;242;1167;-68
2021/09/25 06:18:26;;;;;;;;;;;23.60;41.60;;;;;;491351;242;1055;-68
2021/09/25 06:20:27;;;;;;;;;;;23.60;41.80;;;;;;491321;242;1019;-69
2021/09/25 06:22:28;;;;;;;;;;;23.50;41.90;;;;;;491232;242;1031;-68
2021/09/25 06:24:30;;;;;;;;;;;23.50;42.10;;;;;;491319;242;976;-68
2021/09/25 06:26:31;;;;;;;;;;;23.30;42.20;;;;;;491307;242;1063;-68
2021/09/25 06:28:32;;;;;;;;;;;23.30;42.50;;;;;;491311;242;1055;-68
2021/09/25 06:30:40;;;;;;;;;;;23.40;42.40;;;;;;491322;242;1064;-68
2021/09/25 06:32:35;;;;;;;;;;;23.50;42.40;;;;;;490833;243;2200;-68
2021/09/25 06:34:36;;;;;;;;;;;23.50;42.20;;;;;;491307;242;1060;-69
2021/09/25 06:36:40;;;;;;;;;;;23.40;42.60;;;;;;491273;242;1214;-68
2021/09/25 06:38:40;;;;;;;;;;;23.60;42.60;;;;;;491214;242;1412;-68
2021/09/25 06:40:41;;;;;;;;;;;23.40;42.70;;;;;;491336;242;1109;-69
2021/09/25 06:42:42;;;;;;;;;;;23.30;43.00;;;;;;491390;242;991;-69
2021/09/25 06:44:43;;;;;;;;;;;23.40;43.00;;;;;;491406;242;1024;-68
2021/09/25 06:46:45;;;;;;;;;;;23.40;43.00;;;;;;491392;242;1137;-69
2021/09/25 06:48:47;;;;;;;;;;;23.50;43.10;;;;;;491388;242;1044;-69
2021/09/25 06:50:48;;;;;;;;;;;23.40;43.30;;;;;;491376;242;1258;-69
2021/09/25 06:52:49;;;;;;;;;;;23.40;43.50;;;;;;491297;242;2153;-68
2021/09/25 06:54:50;;;;;;;;;;;23.50;43.40;;;;;;491394;242;1040;-68
2021/09/25 06:56:52;;;;;;;;;;;23.20;43.90;;;;;;491266;242;1107;-68
2021/09/25 06:58:53;;;;;;;;;;;23.30;43.80;;;;;;491413;242;1218;-68
2021/09/25 07:00:54;;;;;;;;;;;23.30;44.10;;;;;;491443;242;1032;-68
2021/09/25 07:02:55;;;;;;;;;;;23.40;44.00;;;;;;491368;242;1206;-69
2021/09/25 07:04:57;;;;;;;;;;;23.30;44.00;;;;;;491292;242;982;-68
2021/09/25 07:06:58;;;;;;;;;;;23.30;44.20;;;;;;491315;242;1123;-68
2021/09/25 07:08:59;;;;;;;;;;;23.20;44.50;;;;;;491329;242;1034;-68
2021/09/25 07:11:01;;;;;;;;;;;23.10;44.80;;;;;;491383;242;1060;-68
2021/09/25 07:13:02;;;;;;;;;;;23.10;44.90;;;;;;491311;242;2191;-68
2021/09/25 07:15:04;;;;;;;;;;;23.00;45.20;;;;;;491314;242;1015;-68
2021/09/25 07:17:05;;;;;;;;;;;23.10;45.10;;;;;;491248;242;1149;-68
2021/09/25 07:19:07;;;;;;;;;;;23.20;45.20;;;;;;491341;242;1045;-68
2021/09/25 07:21:08;;;;;;;;;;;23.30;45.10;;;;;;491439;242;1110;-68
2021/09/25 07:23:09;;;;;;;;;;;23.40;44.60;;;;;;491347;242;1011;-69
2021/09/25 07:25:10;;;;;;;;;;;23.30;45.00;;;;;;491428;242;1060;-68
2021/09/25 07:27:12;;;;;;;;;;;23.30;45.20;;;;;;491244;242;1122;-68
2021/09/25 07:29:13;;;;;;;;;;;23.10;45.50;;;;;;491441;242;973;-68
2021/09/25 07:31:14;;;;;;;;;;;23.20;45.70;;;;;;491393;242;2184;-68
2021/09/25 07:33:16;;;;;;;;;;;23.10;45.80;;;;;;491358;242;1180;-69
2021/09/25 07:35:17;;;;;;;;;;;23.10;45.90;;;;;;491362;242;1022;-68
2021/09/25 07:37:18;;;;;;;;;;;23.20;45.80;;;;;;491264;242;1105;-68
2021/09/25 07:39:20;;;;;;;;;;;23.00;46.20;;;;;;491321;242;1035;-68
2021/09/25 07:41:21;;;;;;;;;;;23.10;46.20;;;;;;491280;242;1138;-68
2021/09/25 07:43:22;;;;;;;;;;;23.10;46.30;;;;;;491320;242;1139;-68
2021/09/25 07:45:24;;;;;;;;;;;23.20;46.30;;;;;;491495;242;1031;-70
2021/09/25 07:47:25;;;;;;;;;;;23.00;46.70;;;;;;491285;242;1185;-68
2021/09/25 07:49:26;;;;;;;;;;;23.10;46.50;;;;;;491413;242;1169;-68
2021/09/25 07:51:28;;;;;;;;;;;23.20;46.50;;;;;;491397;242;2112;-68
2021/09/25 07:53:29;;;;;;;;;;;23.20;46.50;;;;;;491301;242;1042;-68
2021/09/25 07:55:30;;;;;;;;;;;23.20;46.70;;;;;;491314;242;1023;-69
2021/09/25 07:57:32;;;;;;;;;;;23.20;46.70;;;;;;491220;242;1176;-68
2021/09/25 07:59:33;;;;;;;;;;;23.20;46.80;;;;;;491334;242;1096;-68
2021/09/25 08:01:35;;;;;;;;;;;23.10;47.10;;;;;;491223;242;1191;-68
2021/09/25 08:03:36;;;;;;;;;;;23.20;47.30;;;;;;491338;242;1197;-68
2021/09/25 08:05:37;;;;;;;;;;;23.20;47.00;;;;;;491430;242;1075;-68
2021/09/25 08:07:38;;;;;;;;;;;23.10;47.30;;;;;;491310;242;1112;-68
2021/09/25 08:09:39;;;;;;;;;;;23.10;47.40;;;;;;491492;242;1037;-68
2021/09/25 08:11:41;;;;;;;;;;;23.00;47.70;;;;;;491351;242;2196;-68
2021/09/25 08:13:42;;;;;;;;;;;23.00;47.90;;;;;;491302;242;1019;-68
2021/09/25 08:15:45;;;;;;;;;;;23.10;47.90;;;;;;491335;242;1042;-68
2021/09/25 08:17:46;;;;;;;;;;;23.10;48.10;;;;;;491373;242;1138;-69
2021/09/25 08:19:47;;;;;;;;;;;23.10;48.20;;;;;;491398;242;1006;-68
2021/09/25 08:21:49;;;;;;;;;;;23.20;47.90;;;;;;491289;242;1064;-68
2021/09/25 08:23:50;;;;;;;;;;;23.30;47.60;;;;;;491390;242;968;-68
2021/09/25 08:25:53;;;;;;;;;;;23.30;47.90;;;;;;491322;242;1064;-68
2021/09/25 08:27:53;;;;;;;;;;;23.10;48.30;;;;;;491286;242;1348;-69
2021/09/25 08:29:54;;;;;;;;;;;23.10;48.40;;;;;;491331;242;1084;-68
2021/09/25 08:31:55;;;;;;;;;;;23.20;48.40;;;;;;491313;242;2179;-68
2021/09/25 08:33:56;;;;;;;;;;;23.30;48.20;;;;;;491354;242;1301;-68
2021/09/25 08:35:59;;;;;;;;;;;23.40;48.30;;;;;;491283;242;1120;-69
2021/09/25 08:37:59;;;;;;;;;;;23.40;48.30;;;;;;491308;242;1487;-68
2021/09/25 08:40:00;;;;;;;;;;;23.40;48.30;;;;;;491324;242;1006;-68
2021/09/25 08:42:02;;;;;;;;;;;23.10;48.90;;;;;;491287;242;1279;-68
2021/09/25 08:44:03;;;;;;;;;;;23.10;48.80;;;;;;491359;242;1034;-68
2021/09/25 08:46:04;;;;;;;;;;;23.20;48.80;;;;;;491335;242;1248;-68
2021/09/25 08:48:06;;;;;;;;;;;23.20;49.00;;;;;;491300;242;1194;-69
2021/09/25 08:50:07;;;;;;;;;;;23.30;48.90;;;;;;491383;242;1121;-68
2021/09/25 08:52:09;;;;;;;;;;;23.30;49.00;;;;;;491225;242;2200;-68
2021/09/25 08:54:10;;;;;;;;;;;23.30;48.90;;;;;;491282;242;1016;-68
2021/09/25 08:56:12;;;;;;;;;;;23.40;49.10;;;;;;491175;242;1206;-69
2021/09/25 08:58:13;;;;;;;;;;;23.30;49.30;;;;;;491257;242;1387;-69
2021/09/25 09:00:14;;;;;;;;;;;23.10;49.40;;;;;;491367;242;1045;-69
2021/09/25 09:02:15;;;;;;;;;;;23.20;49.40;;;;;;491257;242;1064;-69
2021/09/25 09:04:17;;;;;;;;;;;23.10;49.80;;;;;;491335;242;1135;-69
2021/09/25 09:06:18;;;;;;;;;;;23.40;49.40;;;;;;491267;242;1164;-68
2021/09/25 09:08:19;;;;;;;;;;;23.20;49.50;;;;;;491347;242;1119;-68
2021/09/25 09:10:21;;;;;;;;;;;23.40;49.40;;;;;;491360;242;994;-69
2021/09/25 09:12:22;;;;;;;;;;;23.20;49.70;;;;;;491226;242;2185;-69
2021/09/25 09:14:23;;;;;;;;;;;23.30;49.40;;;;;;491339;242;1039;-68
2021/09/25 09:16:25;;;;;;;;;;;23.30;49.50;;;;;;491290;242;1238;-68
2021/09/25 09:18:26;;;;;;;;;;;23.30;49.60;;;;;;491352;242;1099;-69
2021/09/25 09:20:27;;;;;;;;;;;23.30;49.60;;;;;;491282;242;1268;-68
2021/09/25 09:22:29;;;;;;;;;;;23.40;49.60;;;;;;491218;242;1062;-68
2021/09/25 09:24:30;;;;;;;;;;;23.40;49.50;;;;;;491350;242;1061;-68
2021/09/25 09:26:31;;;;;;;;;;;23.40;49.50;;;;;;491321;242;1487;-68
2021/09/25 09:28:33;;;;;;;;;;;23.40;49.60;;;;;;491356;242;972;-68
2021/09/25 09:30:34;;;;;;;;;;;23.30;50.00;;;;;;491304;242;1020;-68
2021/09/25 09:32:35;;;;;;;;;;;23.60;49.50;;;;;;491311;242;2180;-69
2021/09/25 09:34:37;;;;;;;;;;;23.50;49.50;;;;;;491460;242;1171;-68
2021/09/25 09:36:38;;;;;;;;;;;23.40;49.80;;;;;;491282;242;1057;-69
2021/09/25 09:38:40;;;;;;;;;;;23.30;49.70;;;;;;491421;242;975;-68
2021/09/25 09:40:41;;;;;;;;;;;23.30;50.10;;;;;;491363;242;980;-68
2021/09/25 09:42:42;;;;;;;;;;;23.40;49.90;;;;;;491268;242;941;-68
2021/09/25 09:44:44;;;;;;;;;;;23.50;49.70;;;;;;491319;242;1033;-68
2021/09/25 09:46:45;;;;;;;;;;;23.60;49.40;;;;;;491221;242;1149;-68
2021/09/25 09:48:47;;;;;;;;;;;23.50;49.50;;;;;;491332;242;1165;-68
2021/09/25 09:50:48;;;;;;;;;;;23.30;50.00;;;;;;491230;242;1411;-68
2021/09/25 09:52:49;;;;;;;;;;;23.30;50.00;;;;;;491350;242;2134;-68
2021/09/25 09:54:53;;;;;;;;;;;23.30;49.90;;;;;;491388;242;1230;-69
2021/09/25 09:56:52;;;;;;;;;;;23.40;49.90;;;;;;491050;243;1489;-68
2021/09/25 09:58:53;;;;;;;;;;;23.30;50.30;;;;;;491334;242;957;-69
2021/09/25 10:00:54;;;;;;;;;;;23.30;50.10;;;;;;491293;242;1094;-69
2021/09/25 10:02:56;;;;;;;;;;;23.30;50.10;;;;;;491325;242;1068;-68
2021/09/25 10:04:57;;;;;;;;;;;23.30;50.20;;;;;;491347;239;1245;-69
2021/09/25 10:06:58;;;;;;;;;;;23.10;50.30;;;;;;491235;242;1310;-68
2021/09/25 10:09:00;;;;;;;;;;;23.10;50.50;;;;;;491326;242;1092;-68
2021/09/25 10:11:01;;;;;;;;;;;23.30;50.00;;;;;;491355;242;1135;-68
2021/09/25 10:13:02;;;;;;;;;;;23.40;49.90;;;;;;491329;242;2184;-68
2021/09/25 10:15:04;;;;;;;;;;;23.30;49.90;;;;;;491369;242;1104;-69
2021/09/25 10:17:05;;;;;;;;;;;23.30;50.00;;;;;;491369;242;1066;-68
2021/09/25 10:19:06;;;;;;;;;;;23.30;50.10;;;;;;491378;242;1046;-69
2021/09/25 10:21:08;;;;;;;;;;;23.30;50.00;;;;;;491323;242;1187;-68
2021/09/25 10:23:09;;;;;;;;;;;23.40;49.80;;;;;;491305;242;1109;-69
2021/09/25 10:25:10;;;;;;;;;;;23.30;50.30;;;;;;491330;242;979;-69
2021/09/25 10:27:12;;;;;;;;;;;23.40;49.80;;;;;;491245;242;1183;-68
2021/09/25 10:29:13;;;;;;;;;;;23.20;50.40;;;;;;491342;242;1045;-68
2021/09/25 10:31:14;;;;;;;;;;;23.30;50.20;;;;;;491322;242;1194;-68
2021/09/25 10:33:16;;;;;;;;;;;23.30;50.10;;;;;;491387;242;2181;-68
2021/09/25 10:35:17;;;;;;;;;;;23.50;49.70;;;;;;491302;242;1211;-68
2021/09/25 10:37:18;;;;;;;;;;;23.60;49.50;;;;;;491336;242;1219;-68
2021/09/25 10:39:23;;;;;;;;;;;23.60;49.60;;;;;;491328;242;1081;-68
2021/09/25 10:41:23;;;;;;;;;;;23.50;49.70;;;;;;491239;238;1401;-69
2021/09/25 10:43:26;;;;;;;;;;;23.50;49.60;;;;;;491376;242;961;-68
2021/09/25 10:45:26;;;;;;;;;;;23.40;49.80;;;;;;491254;242;1390;-69
2021/09/25 10:47:27;;;;;;;;;;;23.60;49.60;;;;;;491343;242;1121;-69
2021/09/25 10:49:28;;;;;;;;;;;23.50;49.90;;;;;;491378;242;1088;-69
2021/09/25 10:51:30;;;;;;;;;;;23.60;49.80;;;;;;491359;242;1203;-69
2021/09/25 10:53:32;;;;;;;;;;;23.70;49.50;;;;;;491409;242;2117;-69
2021/09/25 10:55:33;;;;;;;;;;;23.40;50.00;;;;;;491310;242;1101;-68
2021/09/25 10:57:34;;;;;;;;;;;23.40;50.10;;;;;;491283;242;1192;-68
2021/09/25 10:59:36;;;;;;;;;;;23.40;50.20;;;;;;491348;242;1046;-68
2021/09/25 11:01:37;;;;;;;;;;;23.50;50.00;;;;;;491339;242;1114;-68
2021/09/25 11:03:38;;;;;;;;;;;23.50;49.80;;;;;;491451;242;992;-68
2021/09/25 11:05:40;;;;;;;;;;;23.30;50.20;;;;;;491335;242;1145;-68
2021/09/25 11:07:43;;;;;;;;;;;23.30;50.30;;;;;;491280;242;1044;-68
2021/09/25 11:09:43;;;;;;;;;;;23.40;50.20;;;;;;491232;243;1993;-68
2021/09/25 11:11:44;;;;;;;;;;;23.30;50.20;;;;;;491279;242;1105;-68
2021/09/25 11:13:45;;;;;;;;;;;23.40;50.20;;;;;;491296;242;2192;-69
2021/09/25 11:15:47;;;;;;;;;;;23.40;50.30;;;;;;491604;242;1001;-69
2021/09/25 11:17:48;;;;;;;;;;;23.40;50.10;;;;;;491459;242;1009;-68
2021/09/25 11:19:49;;;;;;;;;;;23.60;49.70;;;;;;491362;242;974;-68
2021/09/25 11:21:51;;;;;;;;;;;23.50;49.80;;;;;;491316;242;1152;-68
2021/09/25 11:23:52;;;;;;;;;;;23.40;50.10;;;;;;491394;242;1039;-68
2021/09/25 11:25:53;;;;;;;;;;;23.40;49.80;;;;;;491332;242;1225;-69
2021/09/25 11:27:56;;;;;;;;;;;23.40;49.70;;;;;;491332;242;1168;-68
2021/09/25 11:29:56;;;;;;;;;;;23.40;49.80;;;;;;491411;242;1403;-68
2021/09/25 11:31:57;;;;;;;;;;;23.30;49.80;;;;;;491303;242;1303;-68
2021/09/25 11:33:58;;;;;;;;;;;23.50;49.60;;;;;;491339;242;2168;-68
2021/09/25 11:36:00;;;;;;;;;;;23.70;49.30;;;;;;491276;242;1288;-69
2021/09/25 11:38:01;;;;;;;;;;;23.50;49.50;;;;;;491289;242;1370;-68
2021/09/25 11:40:02;;;;;;;;;;;23.50;49.50;;;;;;491354;242;1034;-69
2021/09/25 11:42:04;;;;;;;;;;;23.50;49.40;;;;;;491355;242;1147;-68
2021/09/25 11:44:05;;;;;;;;;;;23.20;49.90;;;;;;491400;242;1076;-68
2021/09/25 11:46:07;;;;;;;;;;;23.40;49.50;;;;;;491373;242;1234;-69
2021/09/25 11:48:08;;;;;;;;;;;23.40;49.50;;;;;;491342;242;1252;-68
2021/09/25 11:50:09;;;;;;;;;;;23.40;49.50;;;;;;491333;242;1063;-69
2021/09/25 11:52:10;;;;;;;;;;;23.70;48.70;;;;;;491344;242;1174;-69
2021/09/25 11:54:12;;;;;;;;;;;24.00;48.10;;;;;;491420;242;2188;-68
2021/09/25 11:56:13;;;;;;;;;;;24.20;47.60;;;;;;491390;242;1255;-68